Time;durP1;ratioP1;P1;durP2;ratioP2;P2;SDS_P1;SDS_P2;PMS_P1;PMS_P2;Temp;Humidity;BMP_temperature;BMP_pressure;BME280_temperature;BME280_humidity;BME280_pressure;Samples;Min_cycle;Max_cycle;Signal;HPM_P1;HPM_P2
2022/11/25 00:00:52;;;;;;;36.63;10.77;;;3.80;99.90;;;2.60;100.00;97262.00;5068298;28;20460;-75
2022/11/25 00:03:18;;;;;;;33.88;10.20;;;3.80;99.90;;;2.57;100.00;97264.19;5067611;28;20418;-76
2022/11/25 00:05:44;;;;;;;30.00;10.30;;;3.80;99.90;;;2.56;100.00;97271.25;5068656;28;20408;-75
2022/11/25 00:08:10;;;;;;;27.70;9.77;;;3.80;99.90;;;2.58;100.00;97271.03;5068606;28;20495;-76
2022/11/25 00:10:36;;;;;;;32.00;10.30;;;3.80;99.90;;;2.60;100.00;97264.63;5068702;28;20408;-76
2022/11/25 00:13:02;;;;;;;26.92;9.38;;;3.80;99.90;;;2.64;100.00;97265.00;5067938;28;20549;-76
2022/11/25 00:15:28;;;;;;;35.55;9.63;;;3.80;99.90;;;2.64;100.00;97260.56;5068375;28;20422;-76
2022/11/25 00:17:56;;;;;;;36.75;9.50;;;3.80;99.90;;;2.63;100.00;97256.34;5068781;28;20400;-76
2022/11/25 00:20:21;;;;;;;32.45;10.20;;;3.80;99.90;;;2.66;100.00;97248.13;5068790;28;20480;-76
2022/11/25 00:22:47;;;;;;;30.27;10.20;;;3.90;99.90;;;2.66;100.00;97245.50;5067078;28;20435;-76
2022/11/25 00:25:14;;;;;;;32.77;9.67;;;3.90;99.90;;;2.72;100.00;97254.31;5068686;28;20907;-76
2022/11/25 00:27:40;;;;;;;28.70;9.60;;;3.90;99.90;;;2.78;100.00;97247.50;5068160;28;20426;-76
2022/11/25 00:30:07;;;;;;;35.60;9.52;;;4.00;99.90;;;2.87;100.00;97257.50;5068292;28;20419;-76
2022/11/25 00:32:33;;;;;;;27.00;9.52;;;4.00;99.90;;;2.88;100.00;97260.94;5068084;28;20417;-77
2022/11/25 00:35:00;;;;;;;35.65;9.35;;;4.10;99.90;;;2.93;100.00;97261.13;5067272;28;20396;-76
2022/11/25 00:37:26;;;;;;;32.20;8.90;;;4.10;99.90;;;2.95;100.00;97261.72;5068336;28;20420;-77
2022/11/25 00:39:52;;;;;;;29.30;8.52;;;4.10;99.90;;;2.97;100.00;97252.66;5067902;28;20400;-76
2022/11/25 00:45:03;;;;;;;28.65;8.35;;;4.20;99.90;;;3.04;100.00;97247.41;5066369;28;20471;-75
2022/11/25 00:47:29;;;;;;;31.63;8.32;;;4.20;99.90;;;3.11;100.00;97250.81;5065602;28;20709;-75
2022/11/25 00:49:55;;;;;;;30.60;7.97;;;4.30;99.90;;;3.13;100.00;97256.63;5059641;28;20500;-77
2022/11/25 00:52:25;;;;;;;24.97;7.70;;;4.30;99.90;;;3.11;100.00;97251.59;5067297;28;20851;-76
2022/11/25 00:54:53;;;;;;;30.17;7.93;;;4.30;99.90;;;3.13;100.00;97248.00;5067531;28;20436;-78
2022/11/25 00:57:22;;;;;;;27.60;7.47;;;4.30;99.90;;;3.18;100.00;97258.63;5067781;28;20956;-77
2022/11/25 00:59:49;;;;;;;25.42;8.20;;;4.30;99.90;;;3.13;100.00;97259.25;5067741;28;20463;-77
2022/11/25 01:02:17;;;;;;;30.33;8.05;;;4.30;99.90;;;3.14;100.00;97265.28;5067790;28;20400;-77
2022/11/25 01:04:44;;;;;;;24.77;7.35;;;4.30;99.90;;;3.14;100.00;97260.06;5067461;28;20400;-76
2022/11/25 01:07:10;;;;;;;21.30;7.68;;;4.30;99.90;;;3.07;100.00;97266.13;5068026;28;20909;-77
2022/11/25 01:09:37;;;;;;;30.13;7.30;;;4.30;99.90;;;3.08;100.00;97270.31;5068558;28;20412;-77
2022/11/25 01:12:04;;;;;;;27.77;7.37;;;4.30;99.90;;;3.08;100.00;97261.69;5060595;28;20427;-77
2022/11/25 01:14:30;;;;;;;26.60;7.13;;;4.20;99.90;;;3.04;100.00;97266.53;5050853;28;20446;-76
2022/11/25 01:16:56;;;;;;;22.08;7.40;;;4.20;99.90;;;3.07;100.00;97260.88;5054394;28;20433;-77
2022/11/25 01:19:23;;;;;;;28.55;7.32;;;4.20;99.90;;;3.06;100.00;97261.09;5067688;28;20439;-74
2022/11/25 01:21:49;;;;;;;27.48;7.13;;;4.20;99.90;;;3.03;100.00;97254.44;5067501;28;20483;-77
2022/11/25 01:24:15;;;;;;;23.98;7.15;;;4.20;99.90;;;3.07;100.00;97249.63;5066820;28;20896;-76
2022/11/25 01:26:43;;;;;;;19.48;7.30;;;4.30;99.90;;;3.09;100.00;97252.81;5066440;28;20785;-77
2022/11/25 01:29:14;;;;;;;29.42;7.18;;;4.30;99.90;;;3.09;100.00;97252.81;5067577;28;20843;-76
2022/11/25 01:31:40;;;;;;;23.95;7.20;;;4.30;99.90;;;3.08;100.00;97256.47;5067460;28;20500;-77
2022/11/25 01:34:13;;;;;;;31.98;7.68;;;4.30;99.90;;;3.08;100.00;97254.63;5066875;28;20900;-77
2022/11/25 01:36:39;;;;;;;21.50;7.00;;;4.30;99.90;;;3.13;100.00;97266.28;5067877;28;20541;-76
2022/11/25 01:39:06;;;;;;;29.33;7.53;;;4.30;99.90;;;3.26;100.00;97258.41;5067915;28;20404;-77
2022/11/25 01:41:33;;;;;;;24.35;7.38;;;4.30;99.90;;;3.30;100.00;97256.97;5065452;28;20826;-76
2022/11/25 01:44:11;;;;;;;27.00;7.70;;;4.40;99.90;;;3.27;100.00;97266.03;5067289;28;20451;-77
2022/11/25 01:46:55;;;;;;;27.27;7.87;;;4.40;99.90;;;3.28;100.00;97256.38;5067771;28;20509;-77
2022/11/25 01:49:29;;;;;;;30.35;7.30;;;4.50;99.90;;;3.23;100.00;97258.81;5067182;28;20469;-76
2022/11/25 01:52:00;;;;;;;30.38;9.63;;;4.40;99.90;;;3.24;100.00;97258.59;5070358;28;20428;-76
2022/11/25 01:54:32;;;;;;;31.83;11.88;;;4.40;99.90;;;3.21;100.00;97253.78;5067990;28;20457;-77
2022/11/25 01:57:04;;;;;;;24.87;7.77;;;4.40;99.90;;;3.18;100.00;97264.66;5068427;28;20568;-77
2022/11/25 01:59:36;;;;;;;27.92;7.63;;;4.40;99.90;;;3.16;100.00;97266.66;5068824;28;20463;-76
2022/11/25 02:02:03;;;;;;;23.33;6.78;;;4.40;99.90;;;3.15;100.00;97257.25;5071599;28;20455;-78
2022/11/25 02:04:34;;;;;;;23.27;7.30;;;4.30;99.90;;;3.15;100.00;97257.25;5070193;28;20515;-76
2022/11/25 02:07:07;;;;;;;21.27;6.72;;;4.40;99.90;;;3.17;100.00;97260.44;5071112;28;20972;-77
2022/11/25 02:09:35;;;;;;;29.65;6.70;;;4.40;99.90;;;3.15;100.00;97262.47;5070962;28;21004;-77
2022/11/25 02:12:01;;;;;;;22.55;7.00;;;4.30;99.90;;;3.14;100.00;97268.72;5070788;28;20410;-77
2022/11/25 02:14:27;;;;;;;22.13;6.30;;;4.40;99.90;;;3.13;100.00;97264.47;5070330;28;20473;-77
2022/11/25 02:16:55;;;;;;;22.52;6.70;;;4.40;99.90;;;3.14;100.00;97266.09;5070974;28;20891;-77
2022/11/25 02:19:28;;;;;;;18.02;6.00;;;4.30;99.90;;;3.13;100.00;97258.44;5071019;28;20490;-76
2022/11/25 02:22:02;;;;;;;17.40;6.13;;;4.30;99.90;;;3.11;100.00;97264.69;5069407;28;20448;-76
2022/11/25 02:24:39;;;;;;;18.42;6.07;;;4.30;99.90;;;3.11;100.00;97266.50;5068140;28;20422;-77
2022/11/25 02:27:06;;;;;;;13.35;5.45;;;4.30;99.90;;;3.05;100.00;97265.50;5069241;28;21071;-77
2022/11/25 02:29:33;;;;;;;16.75;5.22;;;4.30;99.90;;;3.06;100.00;97261.09;5050801;28;20424;-77
2022/11/25 02:31:59;;;;;;;22.45;5.95;;;4.30;99.90;;;3.03;100.00;97266.72;5057244;28;20411;-77
2022/11/25 02:34:25;;;;;;;14.30;5.80;;;4.20;99.90;;;3.01;100.00;97256.47;5069721;28;20796;-77
2022/11/25 02:36:52;;;;;;;16.35;6.05;;;4.20;99.90;;;2.95;100.00;97257.28;5070351;28;20411;-77
2022/11/25 02:39:19;;;;;;;24.85;5.65;;;4.20;99.90;;;2.91;100.00;97250.88;5070391;28;20515;-76
2022/11/25 02:41:51;;;;;;;21.98;5.97;;;4.10;99.90;;;2.88;100.00;97253.09;5070037;28;20404;-77
2022/11/25 02:44:19;;;;;;;15.50;5.20;;;4.10;99.90;;;2.84;100.00;97254.53;5068320;28;20400;-77
2022/11/25 02:46:45;;;;;;;14.20;5.30;;;4.10;99.90;;;2.79;100.00;97246.47;5070017;28;20504;-77
2022/11/25 02:49:11;;;;;;;14.57;5.00;;;4.00;99.90;;;2.75;100.00;97250.50;5070141;28;20415;-77
2022/11/25 02:51:40;;;;;;;15.57;5.87;;;4.00;99.90;;;2.70;100.00;97246.72;5069761;28;20826;-77
2022/11/25 02:54:06;;;;;;;17.52;6.00;;;4.00;99.90;;;2.66;100.00;97255.16;5069192;28;20472;-76
2022/11/25 02:56:35;;;;;;;23.47;6.70;;;3.90;99.90;;;2.63;100.00;97251.13;5070088;28;20747;-77
2022/11/25 02:59:01;;;;;;;21.27;6.10;;;3.90;99.90;;;2.56;100.00;97244.31;5068285;28;20959;-76
2022/11/25 03:01:30;;;;;;;20.47;6.93;;;3.80;99.90;;;2.54;100.00;97252.38;5068657;28;20412;-75
2022/11/25 03:03:56;;;;;;;21.57;6.20;;;3.80;99.90;;;2.51;100.00;97246.72;5069104;28;20927;-77
2022/11/25 03:06:23;;;;;;;15.88;6.47;;;3.80;99.90;;;2.50;100.00;97239.91;5069948;28;20760;-77
2022/11/25 03:08:49;;;;;;;26.00;7.35;;;3.70;99.90;;;2.48;100.00;97237.47;5069640;28;20928;-77
2022/11/25 03:11:15;;;;;;;17.90;6.32;;;3.70;99.90;;;2.44;100.00;97228.47;5069839;28;20411;-76
2022/11/25 03:13:41;;;;;;;18.05;6.13;;;3.70;99.90;;;2.44;100.00;97236.28;5068518;28;20458;-76
2022/11/25 03:16:07;;;;;;;18.52;6.85;;;3.70;99.90;;;2.41;100.00;97235.88;5069919;28;20777;-77
2022/11/25 03:18:34;;;;;;;21.90;7.82;;;3.70;99.90;;;2.38;100.00;97233.69;5069678;28;20461;-76
2022/11/25 03:21:00;;;;;;;23.48;7.47;;;3.70;99.90;;;2.38;100.00;97226.66;5069366;28;20819;-76
2022/11/25 03:23:26;;;;;;;19.55;7.15;;;3.60;99.90;;;2.40;100.00;97223.84;5068859;28;20416;-76
2022/11/25 03:25:52;;;;;;;21.85;7.88;;;3.60;99.90;;;2.37;100.00;97219.84;5069298;28;20554;-76
2022/11/25 03:28:18;;;;;;;29.27;8.65;;;3.70;99.90;;;2.35;100.00;97229.66;5067797;28;20886;-77
2022/11/25 03:30:44;;;;;;;20.35;7.38;;;3.60;99.90;;;2.33;100.00;97229.09;5069353;28;20484;-77
2022/11/25 03:33:10;;;;;;;17.20;7.35;;;3.60;99.90;;;2.31;100.00;97231.09;5068438;28;20485;-77
2022/11/25 03:35:38;;;;;;;15.98;6.68;;;3.60;99.90;;;2.30;100.00;97237.31;5068695;28;20420;-76
2022/11/25 03:38:04;;;;;;;27.25;8.70;;;3.50;99.90;;;2.28;100.00;97234.91;5069183;28;20497;-78
2022/11/25 03:40:30;;;;;;;26.45;8.55;;;3.60;99.90;;;2.27;100.00;97233.28;5068819;28;20532;-76
2022/11/25 03:42:55;;;;;;;28.08;8.65;;;3.60;99.90;;;2.23;100.00;97231.31;5068078;28;20415;-78
2022/11/25 03:45:21;;;;;;;29.55;9.20;;;3.50;99.90;;;2.18;100.00;97234.50;5068791;28;20831;-77
2022/11/25 03:47:47;;;;;;;20.50;7.80;;;3.50;99.90;;;2.13;100.00;97229.09;5068696;28;20423;-76
2022/11/25 03:50:15;;;;;;;25.25;8.30;;;3.40;99.90;;;2.12;100.00;97224.88;5069081;28;20587;-76
2022/11/25 03:52:42;;;;;;;25.75;8.65;;;3.40;99.90;;;2.12;100.00;97224.06;5066825;28;20415;-77
2022/11/25 03:55:11;;;;;;;25.93;8.67;;;3.40;99.90;;;2.05;100.00;97231.91;5068576;28;20502;-76
2022/11/25 03:57:37;;;;;;;21.88;8.45;;;3.40;99.90;;;2.01;100.00;97229.91;5068469;28;20404;-75
2022/11/25 04:00:05;;;;;;;23.37;8.00;;;3.30;99.90;;;1.98;100.00;97225.88;5069419;28;20510;-75
2022/11/25 04:02:31;;;;;;;23.35;8.85;;;3.30;99.90;;;1.92;100.00;97229.28;5068002;28;20419;-76
2022/11/25 04:04:57;;;;;;;25.05;9.07;;;3.30;99.90;;;1.91;100.00;97225.88;5068159;28;20412;-75
2022/11/25 04:07:22;;;;;;;39.20;10.93;;;3.20;99.90;;;1.98;100.00;97232.91;5068496;28;20861;-75
2022/11/25 04:09:50;;;;;;;22.73;9.25;;;3.20;99.90;;;1.88;100.00;97233.31;5068491;28;20420;-77
2022/11/25 04:15:00;;;;;;;35.55;10.55;;;3.10;99.90;;;1.82;100.00;97232.28;5067667;28;20774;-76
2022/11/25 04:17:26;;;;;;;19.95;8.25;;;3.10;99.90;;;1.75;100.00;97228.88;5068643;28;20411;-76
2022/11/25 04:19:52;;;;;;;24.90;8.95;;;3.10;99.90;;;1.75;100.00;97231.47;5068217;28;20808;-76
2022/11/25 04:22:18;;;;;;;38.67;11.00;;;3.10;99.90;;;1.80;100.00;97236.13;5068755;28;20433;-77
2022/11/25 04:24:44;;;;;;;23.60;9.60;;;3.10;99.90;;;1.78;100.00;97231.09;5067717;28;20427;-77
2022/11/25 04:27:11;;;;;;;28.55;10.27;;;3.10;99.90;;;1.80;100.00;97221.25;5067878;28;20426;-77
2022/11/25 04:29:37;;;;;;;25.67;9.50;;;3.10;99.90;;;1.82;100.00;97226.25;5067399;28;20435;-77
2022/11/25 04:32:04;;;;;;;31.40;9.98;;;3.10;99.90;;;1.85;100.00;97226.69;5068532;28;20486;-77
2022/11/25 04:34:30;;;;;;;25.40;9.18;;;3.10;99.90;;;1.88;100.00;97221.03;5066473;28;20413;-77
2022/11/25 04:36:55;;;;;;;37.55;10.57;;;3.20;99.90;;;1.89;100.00;97233.09;5068181;28;20390;-77
2022/11/25 04:39:21;;;;;;;18.00;8.23;;;3.20;99.90;;;1.94;100.00;97220.25;5067956;28;20415;-76
2022/11/25 04:44:19;;;;;;;25.30;9.00;;;3.20;99.90;;;2.00;100.00;97221.25;5085133;28;20444;-76
2022/11/25 04:46:45;;;;;;;35.42;11.48;;;3.30;99.90;;;2.06;100.00;97219.66;5086468;28;20418;-76
2022/11/25 04:49:11;;;;;;;37.70;10.80;;;3.30;99.90;;;2.04;100.00;97224.25;5088305;28;20425;-76
2022/11/25 04:51:37;;;;;;;37.47;11.10;;;3.30;99.90;;;2.02;100.00;97219.25;5092503;28;20445;-76
2022/11/25 04:54:03;;;;;;;24.10;9.25;;;3.30;99.90;;;1.99;100.00;97227.47;5080028;28;20488;-76
2022/11/25 04:56:29;;;;;;;28.98;9.68;;;3.30;99.90;;;1.95;100.00;97232.28;5074677;28;20504;-76
2022/11/25 05:01:41;;;;;;;44.42;15.48;;;3.20;99.90;;;1.92;100.00;97235.31;5084549;28;20413;-77
2022/11/25 05:04:06;;;;;;;38.25;15.68;;;3.20;99.90;;;1.99;100.00;97235.31;5076467;28;20927;-77
2022/11/25 05:06:32;;;;;;;44.50;14.52;;;3.20;99.90;;;2.01;100.00;97242.94;5075865;28;20400;-76
2022/11/25 05:08:58;;;;;;;43.10;14.80;;;3.20;99.90;;;2.00;100.00;97243.94;5087466;28;20437;-76
2022/11/25 05:11:24;;;;;;;47.60;16.75;;;3.30;99.90;;;1.98;100.00;97241.53;5083332;28;20411;-77
2022/11/25 05:13:50;;;;;;;53.28;17.63;;;3.30;99.90;;;1.97;100.00;97224.25;5067212;28;20408;-76
2022/11/25 05:16:16;;;;;;;47.97;18.42;;;3.20;99.90;;;1.95;100.00;97223.69;5068389;28;20995;-76
2022/11/25 05:18:43;;;;;;;54.47;18.13;;;3.20;99.90;;;1.91;100.00;97218.03;5085851;28;20491;-77
2022/11/25 05:21:09;;;;;;;51.40;17.55;;;3.20;99.90;;;1.91;100.00;97219.84;5087771;28;20837;-76
2022/11/25 05:23:35;;;;;;;54.47;17.63;;;3.20;99.90;;;1.88;100.00;97226.25;5086506;28;20559;-76
2022/11/25 05:26:02;;;;;;;44.40;15.67;;;3.20;99.90;;;1.80;100.00;97228.28;5078097;28;20461;-76
2022/11/25 05:28:28;;;;;;;29.73;13.23;;;3.10;99.90;;;1.74;100.00;97232.47;5077166;28;20498;-76
2022/11/25 05:30:55;;;;;;;39.17;14.70;;;3.10;99.90;;;1.70;100.00;97236.50;5078320;28;20408;-72
2022/11/25 05:33:21;;;;;;;33.88;13.52;;;3.00;99.90;;;1.65;100.00;97235.50;5075786;28;20812;-72
2022/11/25 05:35:56;;;;;;;30.95;12.07;;;3.00;99.90;;;1.58;100.00;97235.44;5072523;28;20419;-73
2022/11/25 05:38:22;;;;;;;34.80;12.80;;;2.90;99.90;;;1.57;100.00;97236.47;5084086;28;20424;-72
2022/11/25 05:40:48;;;;;;;46.17;14.63;;;2.90;99.90;;;1.56;100.00;97245.28;5089377;28;20824;-72
2022/11/25 05:43:14;;;;;;;38.73;12.70;;;2.90;99.90;;;1.47;100.00;97243.88;5071848;28;20603;-73
2022/11/25 05:45:40;;;;;;;27.15;11.57;;;2.80;99.90;;;1.40;100.00;97246.47;5072745;28;21215;-72
2022/11/25 05:48:06;;;;;;;32.70;12.40;;;2.70;99.90;;;1.38;100.00;97248.44;5071537;28;20421;-72
2022/11/25 05:50:32;;;;;;;36.35;13.00;;;2.70;99.90;;;1.36;100.00;97252.25;5071596;28;20415;-72
2022/11/25 05:52:59;;;;;;;37.40;12.82;;;2.70;99.90;;;1.33;100.00;97250.03;5070420;28;20411;-72
2022/11/25 05:55:25;;;;;;;48.67;14.27;;;2.70;99.90;;;1.34;100.00;97256.88;5087113;28;20410;-76
2022/11/25 05:57:51;;;;;;;35.38;12.43;;;2.70;99.90;;;1.25;100.00;97255.44;5086399;28;20463;-73
2022/11/25 06:00:18;;;;;;;36.53;13.53;;;2.60;99.90;;;1.28;100.00;97262.88;5091407;28;20417;-73
2022/11/25 06:02:43;;;;;;;43.23;13.10;;;2.60;99.90;;;1.26;100.00;97264.88;5090110;28;20414;-73
2022/11/25 06:05:09;;;;;;;30.17;11.32;;;2.60;99.90;;;1.21;100.00;97264.63;5090247;28;20429;-72
2022/11/25 06:07:35;;;;;;;38.20;12.10;;;2.50;99.90;;;1.19;100.00;97266.66;5081600;28;20497;-73
2022/11/25 06:10:03;;;;;;;23.52;10.52;;;2.50;99.90;;;1.15;100.00;97267.03;5080644;28;20416;-73
2022/11/25 06:12:29;;;;;;;32.38;11.20;;;2.50;99.90;;;1.13;100.00;97265.59;5069608;28;20828;-73
2022/11/25 06:14:55;;;;;;;36.08;11.27;;;2.50;99.90;;;1.12;100.00;97266.63;5070379;28;20561;-73
2022/11/25 06:17:21;;;;;;;31.60;10.73;;;2.50;99.90;;;1.12;100.00;97270.03;5070338;28;20419;-73
2022/11/25 06:19:47;;;;;;;37.37;11.80;;;2.50;99.90;;;1.10;100.00;97272.03;5072232;28;20415;-73
2022/11/25 06:22:13;;;;;;;31.27;11.60;;;2.50;99.90;;;1.08;100.00;97265.38;5085420;28;20496;-73
2022/11/25 06:24:39;;;;;;;28.88;11.00;;;2.50;99.90;;;1.06;100.00;97276.00;5086261;28;20718;-72
2022/11/25 06:27:06;;;;;;;43.60;14.97;;;2.40;99.90;;;1.08;100.00;97281.03;5072160;28;20429;-72
2022/11/25 06:29:32;;;;;;;48.30;14.55;;;2.40;99.90;;;1.12;100.00;97282.25;5071040;28;20447;-72
2022/11/25 06:31:58;;;;;;;41.67;13.40;;;2.40;99.90;;;1.04;100.00;97280.63;5071153;28;20501;-72
2022/11/25 06:34:24;;;;;;;47.50;13.40;;;2.40;99.90;;;1.02;100.00;97289.63;5071202;28;20404;-72
2022/11/25 06:36:49;;;;;;;32.47;12.90;;;2.40;99.90;;;0.98;100.00;97290.97;5069720;28;20420;-72
2022/11/25 06:39:15;;;;;;;34.08;12.90;;;2.30;99.90;;;0.99;100.00;97290.81;5074168;28;20754;-72
2022/11/25 06:41:46;;;;;;;34.53;12.27;;;2.40;99.90;;;0.98;100.00;97290.97;5079020;28;20419;-73
2022/11/25 06:44:13;;;;;;;33.28;12.25;;;2.40;99.90;;;0.98;100.00;97291.78;5077994;28;20415;-74
2022/11/25 06:46:39;;;;;;;40.83;14.40;;;2.30;99.90;;;0.99;100.00;97296.00;5085541;28;20502;-72
2022/11/25 06:49:06;;;;;;;36.55;14.65;;;2.40;99.90;;;1.03;100.00;97301.66;5089869;28;20421;-74
2022/11/25 06:51:32;;;;;;;35.70;14.10;;;2.40;99.90;;;1.13;100.00;97302.91;5089069;28;20409;-74
2022/11/25 06:53:58;;;;;;;39.80;13.23;;;2.40;99.90;;;1.24;100.00;97298.94;5084879;28;20907;-75
2022/11/25 06:56:27;;;;;;;42.20;13.80;;;2.50;99.90;;;1.36;100.00;97299.19;5081549;28;20411;-74
2022/11/25 06:58:54;;;;;;;38.38;12.88;;;2.60;99.90;;;1.54;100.00;97304.69;5070405;28;20396;-74
2022/11/25 07:01:24;;;;;;;40.45;12.20;;;2.80;99.90;;;1.72;100.00;97302.34;5081756;28;20420;-73
2022/11/25 07:03:53;;;;;;;40.83;11.97;;;3.00;99.90;;;1.84;100.00;97311.19;5089118;28;20477;-75
2022/11/25 07:06:19;;;;;;;34.95;12.63;;;3.10;99.90;;;1.96;100.00;97314.00;5088167;28;20487;-73
2022/11/25 07:08:46;;;;;;;36.85;12.05;;;3.20;99.90;;;2.09;100.00;97313.25;5086588;28;20416;-74
2022/11/25 07:11:22;;;;;;;30.37;11.23;;;3.30;99.90;;;2.20;100.00;97310.03;5079020;28;20935;-72
2022/11/25 07:13:52;;;;;;;33.05;10.40;;;3.40;99.90;;;2.50;100.00;97316.47;5070436;28;20955;-72
2022/11/25 07:16:18;;;;;;;29.30;10.68;;;3.60;99.90;;;2.59;100.00;97311.84;5070124;28;20448;-72
2022/11/25 07:18:46;;;;;;;29.45;9.60;;;3.80;99.90;;;2.80;100.00;97323.88;5068636;28;20503;-72
2022/11/25 07:21:15;;;;;;;32.90;9.77;;;3.90;99.90;;;2.86;100.00;97328.28;5077937;28;21090;-72
2022/11/25 07:23:42;;;;;;;25.75;8.95;;;4.00;99.90;;;2.94;100.00;97326.28;5069979;28;20442;-71
2022/11/25 07:26:10;;;;;;;21.42;8.40;;;4.10;99.90;;;3.01;100.00;97313.19;5073269;28;20412;-73
2022/11/25 07:28:38;;;;;;;20.30;8.85;;;4.20;99.90;;;3.13;100.00;97315.97;5078885;28;20450;-75
2022/11/25 07:31:06;;;;;;;26.88;8.15;;;4.30;99.90;;;3.26;100.00;97318.56;5073918;28;20426;-73
2022/11/25 07:33:32;;;;;;;18.17;7.97;;;4.40;99.90;;;3.36;100.00;97326.78;5077964;28;20445;-75
2022/11/25 07:36:03;;;;;;;18.88;7.55;;;4.50;99.90;;;3.38;100.00;97332.63;5077167;28;20420;-74
2022/11/25 07:38:30;;;;;;;20.80;7.00;;;4.50;99.90;;;3.46;100.00;97335.78;5087032;28;20843;-74
2022/11/25 07:41:01;;;;;;;16.10;6.78;;;4.60;99.90;;;3.63;100.00;97335.31;5090478;28;20408;-75
2022/11/25 07:43:27;;;;;;;14.57;6.57;;;4.60;99.90;;;3.56;100.00;97343.19;5078796;28;20850;-74
2022/11/25 07:45:53;;;;;;;21.77;6.80;;;4.70;99.90;;;3.59;100.00;97340.19;5076432;28;20400;-77
2022/11/25 07:48:19;;;;;;;17.77;6.00;;;4.70;99.90;;;3.47;100.00;97349.66;5071816;28;20914;-76
2022/11/25 07:50:45;;;;;;;18.30;6.20;;;4.60;99.90;;;3.56;100.00;97350.25;5070959;28;20412;-76
2022/11/25 07:53:13;;;;;;;23.17;6.30;;;4.70;99.90;;;3.61;100.00;97351.22;5069625;28;20408;-76
2022/11/25 07:55:38;;;;;;;11.52;6.15;;;4.70;99.90;;;3.59;100.00;97358.50;5073578;28;20407;-76
2022/11/25 07:58:04;;;;;;;14.25;5.40;;;4.70;99.90;;;3.68;100.00;97357.25;5081490;28;20431;-76
2022/11/25 08:00:30;;;;;;;16.95;6.18;;;4.80;99.90;;;3.74;100.00;97377.38;5078691;28;20419;-75
2022/11/25 08:02:56;;;;;;;22.45;5.60;;;4.90;99.90;;;3.82;100.00;97368.47;5076387;28;20411;-76
2022/11/25 08:05:22;;;;;;;13.60;5.07;;;4.90;99.90;;;3.81;100.00;97377.34;5074968;28;20411;-75
2022/11/25 08:07:48;;;;;;;16.55;5.72;;;4.90;99.90;;;3.89;100.00;97377.91;5076297;28;20415;-74
2022/11/25 08:10:15;;;;;;;12.30;5.25;;;5.00;99.90;;;3.99;100.00;97374.81;5082002;28;20422;-76
2022/11/25 08:12:41;;;;;;;15.93;5.43;;;5.00;99.90;;;3.91;100.00;97372.44;5078905;28;20422;-78
2022/11/25 08:15:08;;;;;;;15.30;5.40;;;5.00;99.90;;;4.03;100.00;97372.59;5068568;28;20442;-78
2022/11/25 08:17:34;;;;;;;12.60;5.47;;;5.00;99.90;;;3.96;100.00;97380.50;5071965;28;20415;-81
2022/11/25 08:20:00;;;;;;;16.55;5.75;;;5.00;99.90;;;3.97;100.00;97373.44;5074998;28;20403;-77
2022/11/25 08:22:27;;;;;;;19.85;5.70;;;5.00;99.90;;;3.91;100.00;97369.81;5082430;28;20463;-78
2022/11/25 08:24:53;;;;;;;19.75;5.63;;;5.10;99.90;;;3.95;100.00;97360.56;5078774;28;20407;-85
2022/11/25 08:27:20;;;;;;;18.65;6.00;;;5.10;99.90;;;3.88;100.00;97355.34;5075142;28;20897;-78
2022/11/25 08:29:46;;;;;;;15.38;6.22;;;5.00;99.90;;;3.98;100.00;97356.72;5073912;28;20407;-77
2022/11/25 08:32:12;;;;;;;16.42;5.63;;;5.10;99.90;;;4.06;100.00;97362.50;5079662;28;20412;-77
2022/11/25 08:34:38;;;;;;;19.88;5.78;;;5.20;99.90;;;4.07;100.00;97371.16;5069486;28;20426;-77
2022/11/25 08:37:04;;;;;;;13.35;5.65;;;5.20;99.90;;;4.08;100.00;97372.75;5071394;28;20417;-76
2022/11/25 08:39:30;;;;;;;17.10;6.30;;;5.20;99.90;;;4.07;100.00;97371.16;5077074;28;20830;-79
2022/11/25 08:41:56;;;;;;;18.85;5.88;;;5.10;99.90;;;4.10;100.00;97374.16;5075664;28;20421;-74
2022/11/25 08:44:27;;;;;;;17.80;6.13;;;5.20;99.90;;;4.11;100.00;97367.13;5074514;28;20407;-75
2022/11/25 08:46:52;;;;;;;18.63;6.10;;;5.20;99.90;;;4.06;100.00;97365.09;5075405;28;20403;-74
2022/11/25 08:49:18;;;;;;;15.13;5.95;;;5.20;99.90;;;4.03;100.00;97368.16;5080338;28;21029;-74
2022/11/25 08:51:44;;;;;;;13.63;5.30;;;5.20;99.90;;;4.12;100.00;97366.91;5076431;28;20415;-75
2022/11/25 08:54:10;;;;;;;16.23;5.85;;;5.30;99.90;;;4.07;100.00;97364.09;5074738;28;20417;-74
2022/11/25 08:56:36;;;;;;;17.50;5.50;;;5.20;99.90;;;4.17;100.00;97364.47;5080918;28;20417;-77
2022/11/25 08:59:03;;;;;;;15.77;6.20;;;5.30;99.90;;;4.22;100.00;97369.84;5074958;28;20412;-76
2022/11/25 09:01:30;;;;;;;17.05;5.78;;;5.30;99.90;;;4.21;100.00;97376.09;5068566;28;20404;-75
2022/11/25 09:03:58;;;;;;;13.68;5.50;;;5.30;99.90;;;4.30;100.00;97379.28;5077772;28;20408;-77
2022/11/25 09:06:25;;;;;;;17.30;5.05;;;5.40;99.90;;;4.53;100.00;97373.47;5080234;28;20820;-73
2022/11/25 09:08:56;;;;;;;10.83;5.07;;;5.50;99.90;;;4.67;100.00;97373.16;5080173;28;20459;-74
2022/11/25 09:11:22;;;;;;;16.33;5.13;;;5.70;99.90;;;5.05;100.00;97386.16;5084483;28;20414;-73
2022/11/25 09:13:47;;;;;;;16.03;5.37;;;5.90;99.90;;;5.08;100.00;97387.56;5076104;28;20453;-73
2022/11/25 09:16:14;;;;;;;12.90;5.00;;;6.20;99.90;;;5.30;100.00;97383.53;5077612;28;20413;-76
2022/11/25 09:18:41;;;;;;;13.60;5.10;;;6.20;99.90;;;5.41;100.00;97379.38;5082041;28;20393;-76
2022/11/25 09:21:10;;;;;;;13.50;4.18;;;6.40;99.90;;;5.45;100.00;97394.47;5087989;28;20404;-74
2022/11/25 09:23:37;;;;;;;12.77;4.10;;;6.40;99.90;;;5.68;100.00;97388.56;5072808;28;20517;-75
2022/11/25 09:26:05;;;;;;;9.75;4.10;;;6.60;99.90;;;5.79;100.00;97395.69;5084654;28;20840;-74
2022/11/25 09:28:31;;;;;;;14.77;4.38;;;6.70;99.90;;;5.69;100.00;97397.25;5072457;28;20416;-73
2022/11/25 09:30:57;;;;;;;14.95;3.92;;;6.70;99.90;;;5.52;100.00;97407.53;5079410;28;20474;-80
2022/11/25 09:33:22;;;;;;;11.70;3.60;;;6.60;99.90;;;5.46;100.00;97400.53;5071274;28;20964;-76
2022/11/25 09:35:50;;;;;;;8.98;3.90;;;6.50;99.90;;;5.51;100.00;97405.91;5070118;28;20406;-73
2022/11/25 09:38:16;;;;;;;12.57;4.00;;;6.50;99.90;;;5.57;100.00;97402.41;5071585;28;20482;-72
2022/11/25 09:40:50;;;;;;;13.88;4.25;;;6.60;99.90;;;5.53;100.00;97409.13;5074784;28;20418;-72
2022/11/25 09:46:52;;;;;;;12.55;3.97;;;6.50;99.90;;;5.45;100.00;97402.34;5078582;28;20393;-73
2022/11/25 09:49:45;;;;;;;11.53;3.90;;;6.50;99.90;;;5.47;100.00;97402.13;5074649;28;20437;-79
2022/11/25 09:52:27;;;;;;;10.85;3.80;;;6.50;99.90;;;5.67;100.00;97405.34;5077851;28;20413;-72
2022/11/25 09:55:01;;;;;;;16.83;4.40;;;6.70;99.90;;;5.74;100.00;97410.50;5075214;28;20410;-72
2022/11/25 09:57:41;;;;;;;11.52;4.20;;;6.70;99.90;;;5.92;100.00;97404.50;5078915;28;20423;-73
2022/11/25 10:00:13;;;;;;;13.20;4.03;;;6.80;99.90;;;5.90;100.00;97396.81;5083039;28;20402;-72
2022/11/25 10:02:44;;;;;;;12.55;3.97;;;6.90;99.90;;;5.87;100.00;97394.59;5082127;28;20394;-73
2022/11/25 10:05:18;;;;;;;13.52;3.88;;;6.90;99.90;;;5.81;100.00;97395.47;5078312;28;20405;-75
2022/11/25 10:07:51;;;;;;;13.00;4.00;;;6.90;99.90;;;6.03;100.00;97398.47;5087170;28;20514;-77
2022/11/25 10:10:24;;;;;;;9.95;3.80;;;7.00;99.90;;;6.20;100.00;97410.78;5078851;28;20410;-76
2022/11/25 10:12:52;;;;;;;8.70;3.88;;;7.20;99.90;;;6.25;100.00;97406.69;5079864;28;20394;-77
2022/11/25 10:15:26;;;;;;;11.25;3.90;;;7.10;99.90;;;6.25;100.00;97401.41;5087159;28;20464;-76
2022/11/25 10:17:57;;;;;;;11.13;3.60;;;7.20;99.90;;;6.09;100.00;97413.38;5082259;28;20847;-77
2022/11/25 10:20:28;;;;;;;13.30;3.50;;;7.10;99.90;;;6.39;100.00;97419.41;5077797;28;20442;-75
2022/11/25 10:23:00;;;;;;;13.50;3.72;;;7.30;99.90;;;6.32;100.00;97421.34;5088627;28;20535;-75
2022/11/25 10:25:29;;;;;;;9.50;3.30;;;7.30;99.90;;;6.58;100.00;97412.28;5076049;28;20416;-77
2022/11/25 10:27:58;;;;;;;8.75;3.35;;;7.50;99.90;;;6.54;100.00;97421.66;5088789;28;20445;-77
2022/11/25 10:30:31;;;;;;;9.02;3.30;;;7.50;99.90;;;7.05;100.00;97421.09;5082699;28;20411;-77
2022/11/25 10:33:06;;;;;;;6.78;3.20;;;7.90;99.90;;;7.23;100.00;97420.16;5082947;28;20809;-77